sensor_id;sensor_type;location;lat;lon;timestamp;temperature;humidity
72646;DHT22;60687;53.876;10.674;2022-12-18T00:05:49;-3.40;90.50
72646;DHT22;60687;53.876;10.674;2022-12-18T00:15:53;-3.50;90.50
72646;DHT22;60687;53.876;10.674;2022-12-18T00:25:58;-3.60;90.40
72646;DHT22;60687;53.876;10.674;2022-12-18T00:36:03;-3.70;90.30
72646;DHT22;60687;53.876;10.674;2022-12-18T00:46:06;-3.70;90.40
72646;DHT22;60687;53.876;10.674;2022-12-18T00:56:09;-3.70;90.40
72646;DHT22;60687;53.876;10.674;2022-12-18T01:06:12;-3.80;90.20
72646;DHT22;60687;53.876;10.674;2022-12-18T01:16:17;-3.80;90.30
72646;DHT22;60687;53.876;10.674;2022-12-18T01:26:20;-3.90;90.40
72646;DHT22;60687;53.876;10.674;2022-12-18T01:36:24;-4.00;90.50
72646;DHT22;60687;53.876;10.674;2022-12-18T01:46:27;-4.00;90.40
72646;DHT22;60687;53.876;10.674;2022-12-18T01:56:30;-4.10;90.30
72646;DHT22;60687;53.876;10.674;2022-12-18T02:06:36;-4.20;90.20
72646;DHT22;60687;53.876;10.674;2022-12-18T02:16:46;-4.20;90.40
72646;DHT22;60687;53.876;10.674;2022-12-18T02:26:53;-4.20;90.70
72646;DHT22;60687;53.876;10.674;2022-12-18T02:37:00;-4.30;90.20
72646;DHT22;60687;53.876;10.674;2022-12-18T02:47:05;-4.30;90.70
72646;DHT22;60687;53.876;10.674;2022-12-18T02:57:15;-4.40;90.20
72646;DHT22;60687;53.876;10.674;2022-12-18T03:07:26;-4.40;90.20
72646;DHT22;60687;53.876;10.674;2022-12-18T03:17:32;-4.40;90.30
72646;DHT22;60687;53.876;10.674;2022-12-18T03:27:37;-4.50;90.40
72646;DHT22;60687;53.876;10.674;2022-12-18T03:37:40;-4.50;90.50
72646;DHT22;60687;53.876;10.674;2022-12-18T03:47:49;-4.50;90.40
72646;DHT22;60687;53.876;10.674;2022-12-18T03:57:53;-4.60;90.40
72646;DHT22;60687;53.876;10.674;2022-12-18T04:07:59;-4.70;90.50
72646;DHT22;60687;53.876;10.674;2022-12-18T04:18:02;-4.70;90.40
72646;DHT22;60687;53.876;10.674;2022-12-18T04:28:06;-4.70;90.30
72646;DHT22;60687;53.876;10.674;2022-12-18T04:38:08;-4.90;90.50
72646;DHT22;60687;53.876;10.674;2022-12-18T04:48:22;-4.90;90.10
72646;DHT22;60687;53.876;10.674;2022-12-18T04:58:23;-5.00;90.00
72646;DHT22;60687;53.876;10.674;2022-12-18T05:08:27;-5.10;90.00
72646;DHT22;60687;53.876;10.674;2022-12-18T05:18:29;-5.10;90.10
72646;DHT22;60687;53.876;10.674;2022-12-18T05:28:34;-5.10;89.80
72646;DHT22;60687;53.876;10.674;2022-12-18T05:38:38;-5.20;89.40
72646;DHT22;60687;53.876;10.674;2022-12-18T05:48:42;-5.20;89.80
72646;DHT22;60687;53.876;10.674;2022-12-18T05:58:44;-5.30;89.70
72646;DHT22;60687;53.876;10.674;2022-12-18T06:08:48;-5.30;89.80
72646;DHT22;60687;53.876;10.674;2022-12-18T06:18:50;-5.30;89.50
72646;DHT22;60687;53.876;10.674;2022-12-18T06:28:54;-5.40;89.50
72646;DHT22;60687;53.876;10.674;2022-12-18T06:38:56;-5.50;89.30
72646;DHT22;60687;53.876;10.674;2022-12-18T06:49:00;-5.50;89.60
72646;DHT22;60687;53.876;10.674;2022-12-18T06:59:02;-5.50;89.30
72646;DHT22;60687;53.876;10.674;2022-12-18T07:09:05;-5.60;89.10
72646;DHT22;60687;53.876;10.674;2022-12-18T07:29:13;-5.60;89.30
72646;DHT22;60687;53.876;10.674;2022-12-18T07:39:15;-5.60;88.50
72646;DHT22;60687;53.876;10.674;2022-12-18T07:49:19;-5.80;88.50
72646;DHT22;60687;53.876;10.674;2022-12-18T07:59:22;-5.70;89.10
72646;DHT22;60687;53.876;10.674;2022-12-18T08:09:26;-5.70;89.00
72646;DHT22;60687;53.876;10.674;2022-12-18T08:19:28;-5.70;89.10
72646;DHT22;60687;53.876;10.674;2022-12-18T08:29:33;-5.70;88.50
72646;DHT22;60687;53.876;10.674;2022-12-18T08:39:38;-5.60;90.00
72646;DHT22;60687;53.876;10.674;2022-12-18T08:49:44;-5.30;90.00
72646;DHT22;60687;53.876;10.674;2022-12-18T08:59:46;-5.10;89.80
72646;DHT22;60687;53.876;10.674;2022-12-18T09:09:50;-4.90;88.10
72646;DHT22;60687;53.876;10.674;2022-12-18T09:19:52;-4.80;87.30
72646;DHT22;60687;53.876;10.674;2022-12-18T09:29:55;-4.70;86.90
72646;DHT22;60687;53.876;10.674;2022-12-18T09:39:57;-4.60;86.20
72646;DHT22;60687;53.876;10.674;2022-12-18T09:50:04;-4.50;86.60
72646;DHT22;60687;53.876;10.674;2022-12-18T10:00:16;-4.40;85.90
72646;DHT22;60687;53.876;10.674;2022-12-18T10:10:39;-4.40;85.90
72646;DHT22;60687;53.876;10.674;2022-12-18T10:20:46;-4.40;85.70
72646;DHT22;60687;53.876;10.674;2022-12-18T10:30:50;-4.30;86.30
72646;DHT22;60687;53.876;10.674;2022-12-18T10:40:54;-4.30;85.80
72646;DHT22;60687;53.876;10.674;2022-12-18T10:50:58;-4.20;85.30
72646;DHT22;60687;53.876;10.674;2022-12-18T11:01:04;-4.20;85.70
72646;DHT22;60687;53.876;10.674;2022-12-18T11:11:20;-4.00;85.70
72646;DHT22;60687;53.876;10.674;2022-12-18T11:21:22;-4.00;85.20
72646;DHT22;60687;53.876;10.674;2022-12-18T11:31:27;-3.90;85.50
72646;DHT22;60687;53.876;10.674;2022-12-18T11:41:36;-3.80;85.20
72646;DHT22;60687;53.876;10.674;2022-12-18T11:52:03;-3.70;85.60
72646;DHT22;60687;53.876;10.674;2022-12-18T12:02:24;-3.60;85.40
72646;DHT22;60687;53.876;10.674;2022-12-18T12:12:39;-3.60;85.60
72646;DHT22;60687;53.876;10.674;2022-12-18T12:22:53;-3.50;86.20
72646;DHT22;60687;53.876;10.674;2022-12-18T12:33:13;-3.40;86.50
72646;DHT22;60687;53.876;10.674;2022-12-18T12:43:25;-3.20;87.30
72646;DHT22;60687;53.876;10.674;2022-12-18T12:53:34;-3.20;87.00
72646;DHT22;60687;53.876;10.674;2022-12-18T13:03:44;-3.10;87.50
72646;DHT22;60687;53.876;10.674;2022-12-18T13:13:50;-3.00;87.50
72646;DHT22;60687;53.876;10.674;2022-12-18T13:23:53;-3.00;87.40
72646;DHT22;60687;53.876;10.674;2022-12-18T13:34:12;-3.00;86.30
72646;DHT22;60687;53.876;10.674;2022-12-18T13:44:25;-2.90;86.70
72646;DHT22;60687;53.876;10.674;2022-12-18T13:54:33;-2.90;86.30
72646;DHT22;60687;53.876;10.674;2022-12-18T14:04:36;-2.90;86.30
72646;DHT22;60687;53.876;10.674;2022-12-18T14:14:41;-3.00;86.30
72646;DHT22;60687;53.876;10.674;2022-12-18T14:24:43;-2.90;87.70
72646;DHT22;60687;53.876;10.674;2022-12-18T14:34:48;-2.90;86.90
72646;DHT22;60687;53.876;10.674;2022-12-18T14:44:51;-2.90;87.20
72646;DHT22;60687;53.876;10.674;2022-12-18T14:54:55;-3.00;87.50
72646;DHT22;60687;53.876;10.674;2022-12-18T15:05:02;-3.00;87.90
72646;DHT22;60687;53.876;10.674;2022-12-18T15:25:42;-3.10;88.00
72646;DHT22;60687;53.876;10.674;2022-12-18T15:35:44;-3.10;88.10
72646;DHT22;60687;53.876;10.674;2022-12-18T15:45:47;-3.20;88.40
72646;DHT22;60687;53.876;10.674;2022-12-18T16:06:52;-3.20;88.50
72646;DHT22;60687;53.876;10.674;2022-12-18T16:16:58;-3.30;88.60
72646;DHT22;60687;53.876;10.674;2022-12-18T16:27:02;-3.40;88.70
72646;DHT22;60687;53.876;10.674;2022-12-18T16:37:06;-3.40;89.40
72646;DHT22;60687;53.876;10.674;2022-12-18T16:47:10;-3.40;89.90
72646;DHT22;60687;53.876;10.674;2022-12-18T16:57:13;-3.30;90.20
72646;DHT22;60687;53.876;10.674;2022-12-18T17:07:17;-3.30;90.40
72646;DHT22;60687;53.876;10.674;2022-12-18T17:17:19;-3.20;90.60
72646;DHT22;60687;53.876;10.674;2022-12-18T17:27:23;-3.10;90.80
72646;DHT22;60687;53.876;10.674;2022-12-18T17:37:44;-3.10;90.80
72646;DHT22;60687;53.876;10.674;2022-12-18T17:47:49;-3.00;90.90
72646;DHT22;60687;53.876;10.674;2022-12-18T17:57:51;-3.00;90.80
72646;DHT22;60687;53.876;10.674;2022-12-18T18:07:54;-2.90;90.80
72646;DHT22;60687;53.876;10.674;2022-12-18T18:17:56;-2.90;90.70
72646;DHT22;60687;53.876;10.674;2022-12-18T18:28:00;-2.90;90.60
72646;DHT22;60687;53.876;10.674;2022-12-18T18:38:02;-2.80;90.50
72646;DHT22;60687;53.876;10.674;2022-12-18T18:48:05;-2.80;90.30
72646;DHT22;60687;53.876;10.674;2022-12-18T18:58:07;-2.70;90.10
72646;DHT22;60687;53.876;10.674;2022-12-18T19:08:11;-2.70;89.80
72646;DHT22;60687;53.876;10.674;2022-12-18T19:18:14;-2.60;89.80
72646;DHT22;60687;53.876;10.674;2022-12-18T19:28:17;-2.60;89.40
72646;DHT22;60687;53.876;10.674;2022-12-18T19:38:19;-2.50;88.60
72646;DHT22;60687;53.876;10.674;2022-12-18T19:48:23;-2.50;88.10
72646;DHT22;60687;53.876;10.674;2022-12-18T19:58:28;-2.50;87.90
72646;DHT22;60687;53.876;10.674;2022-12-18T20:08:38;-2.40;87.70
72646;DHT22;60687;53.876;10.674;2022-12-18T20:18:58;-2.40;87.50
72646;DHT22;60687;53.876;10.674;2022-12-18T20:29:13;-2.40;87.20
72646;DHT22;60687;53.876;10.674;2022-12-18T20:39:15;-2.40;87.00
72646;DHT22;60687;53.876;10.674;2022-12-18T20:49:19;-2.40;86.90
72646;DHT22;60687;53.876;10.674;2022-12-18T20:59:21;-2.40;86.90
72646;DHT22;60687;53.876;10.674;2022-12-18T21:09:26;-2.40;87.10
72646;DHT22;60687;53.876;10.674;2022-12-18T21:19:28;-2.30;87.00
72646;DHT22;60687;53.876;10.674;2022-12-18T21:29:32;-2.30;87.70
72646;DHT22;60687;53.876;10.674;2022-12-18T21:39:34;-2.30;86.80
72646;DHT22;60687;53.876;10.674;2022-12-18T21:49:37;-2.20;86.30
72646;DHT22;60687;53.876;10.674;2022-12-18T21:59:41;-2.20;86.20
72646;DHT22;60687;53.876;10.674;2022-12-18T22:09:49;-2.20;85.90
72646;DHT22;60687;53.876;10.674;2022-12-18T22:19:51;-2.20;85.90
72646;DHT22;60687;53.876;10.674;2022-12-18T22:29:55;-2.10;85.30
72646;DHT22;60687;53.876;10.674;2022-12-18T22:40:08;-2.00;85.10
72646;DHT22;60687;53.876;10.674;2022-12-18T22:50:26;-2.00;85.00
72646;DHT22;60687;53.876;10.674;2022-12-18T23:00:28;-1.90;84.90
72646;DHT22;60687;53.876;10.674;2022-12-18T23:10:32;-1.90;84.50
72646;DHT22;60687;53.876;10.674;2022-12-18T23:20:52;-1.90;84.60
72646;DHT22;60687;53.876;10.674;2022-12-18T23:31:13;-1.90;84.10
72646;DHT22;60687;53.876;10.674;2022-12-18T23:41:16;-1.90;85.10
72646;DHT22;60687;53.876;10.674;2022-12-18T23:51:32;-1.80;85.00
